Time;durP1;ratioP1;P1;durP2;ratioP2;P2;SDS_P1;SDS_P2;PMS_P1;PMS_P2;Temp;Humidity;BMP_temperature;BMP_pressure;BME280_temperature;BME280_humidity;BME280_pressure;Samples;Min_cycle;Max_cycle;Signal;HPM_P1;HPM_P2
2022/04/23 00:00:30;;;;;;;5.60;5.07;;;;;;;12.40;79.62;98533.66;5012829;28;20255;-68
2022/04/23 00:02:59;;;;;;;5.30;4.77;;;;;;;12.40;80.14;98527.50;5012551;28;20197;-69
2022/04/23 00:05:26;;;;;;;5.80;5.20;;;;;;;12.44;80.10;98539.31;5012274;28;20201;-68
2022/04/23 00:07:53;;;;;;;7.10;4.57;;;;;;;12.42;80.30;98531.56;5012444;28;20244;-69
2022/04/23 00:10:21;;;;;;;6.80;4.50;;;;;;;12.40;79.69;98528.31;5012537;28;20665;-68
2022/04/23 00:12:48;;;;;;;6.73;4.73;;;;;;;12.40;80.10;98524.84;5012408;28;20279;-69
2022/04/23 00:15:15;;;;;;;5.73;5.20;;;;;;;12.45;80.04;98540.97;5012098;28;20703;-69
2022/04/23 00:17:46;;;;;;;5.40;5.10;;;;;;;12.35;80.28;98535.38;5011876;28;20634;-69
2022/04/23 00:20:13;;;;;;;7.47;5.10;;;;;;;12.35;80.74;98530.88;5012054;28;20244;-68
2022/04/23 00:22:40;;;;;;;7.33;5.27;;;;;;;12.33;80.78;98532.94;5012030;28;20204;-69
2022/04/23 00:25:08;;;;;;;6.30;4.70;;;;;;;12.31;81.08;98540.38;5012364;28;20196;-69
2022/04/23 00:27:35;;;;;;;6.00;5.40;;;;;;;12.30;81.34;98533.44;5012380;28;20259;-69
2022/04/23 00:30:01;;;;;;;5.30;4.80;;;;;;;12.27;81.28;98533.88;5012208;28;20198;-69
2022/04/23 00:32:28;;;;;;;5.97;5.37;;;;;;;12.28;81.37;98546.13;5011952;28;20200;-68
2022/04/23 00:34:56;;;;;;;5.57;5.07;;;;;;;12.22;81.76;98547.06;5012224;28;20197;-68
2022/04/23 00:37:23;;;;;;;6.97;6.20;;;;;;;12.13;81.50;98539.66;5012503;28;20200;-68
2022/04/23 00:39:49;;;;;;;5.10;4.77;;;;;;;12.09;82.21;98541.94;5012207;28;20287;-68
2022/04/23 00:42:17;;;;;;;5.60;5.17;;;;;;;12.10;82.25;98542.75;5012223;28;20258;-68
2022/04/23 00:44:44;;;;;;;5.33;4.93;;;;;;;12.08;82.24;98537.66;5012141;28;20190;-69
2022/04/23 00:47:10;;;;;;;4.87;4.57;;;;;;;12.06;82.00;98542.41;5011970;28;20251;-68
2022/04/23 00:49:37;;;;;;;6.57;5.37;;;;;;;12.05;82.44;98543.44;5012631;28;20234;-68
2022/04/23 00:52:06;;;;;;;5.70;5.10;;;;;;;12.04;82.94;98539.16;5011732;28;20201;-68
2022/04/23 00:54:33;;;;;;;7.80;5.07;;;;;;;12.05;82.61;98550.63;5011780;28;20200;-68
2022/04/23 00:57:00;;;;;;;6.90;5.60;;;;;;;11.85;82.86;98550.94;5011636;28;20678;-68
2022/04/23 00:59:31;;;;;;;9.10;5.67;;;;;;;11.81;83.45;98549.75;5011599;28;20781;-68
2022/04/23 01:01:58;;;;;;;6.73;5.17;;;;;;;11.80;83.44;98550.78;5011992;28;20192;-67
2022/04/23 01:04:24;;;;;;;6.07;5.50;;;;;;;11.77;82.97;98553.91;5011881;28;20199;-67
2022/04/23 01:06:51;;;;;;;6.57;5.97;;;;;;;11.71;82.56;98554.78;5014330;28;20253;-67
2022/04/23 01:09:20;;;;;;;6.20;5.60;;;;;;;11.70;82.10;98547.84;5016039;28;20202;-68
2022/04/23 01:11:47;;;;;;;6.60;5.63;;;;;;;11.61;82.25;98546.56;5016178;28;20206;-68
2022/04/23 01:14:15;;;;;;;6.10;5.60;;;;;;;11.55;82.11;98542.09;5015148;28;20287;-68
2022/04/23 01:16:42;;;;;;;6.67;6.07;;;;;;;11.54;82.31;98537.81;5015417;28;20323;-68
2022/04/23 01:19:09;;;;;;;5.90;5.50;;;;;;;11.53;82.66;98546.84;5015550;28;20226;-68
2022/04/23 01:21:37;;;;;;;6.13;5.47;;;;;;;11.54;82.85;98550.28;5015339;28;20255;-67
2022/04/23 01:24:04;;;;;;;6.83;6.23;;;;;;;11.37;82.74;98541.31;5015036;28;20553;-68
2022/04/23 01:26:32;;;;;;;6.50;6.07;;;;;;;11.32;83.60;98555.28;5014996;28;20195;-68
2022/04/23 01:29:00;;;;;;;6.90;5.83;;;;;;;11.23;83.53;98561.94;5014966;28;20630;-68
2022/04/23 01:31:27;;;;;;;6.67;6.10;;;;;;;11.19;83.96;98565.25;5014765;28;20193;-68
2022/04/23 01:33:54;;;;;;;10.77;6.20;;;;;;;11.23;84.05;98566.44;5015291;28;20196;-68
2022/04/23 01:36:21;;;;;;;7.67;6.93;;;;;;;11.21;83.75;98573.81;5015876;28;20206;-68
2022/04/23 01:38:49;;;;;;;6.60;6.10;;;;;;;11.19;83.78;98559.94;5014955;28;20274;-67
2022/04/23 01:41:16;;;;;;;7.50;6.63;;;;;;;11.08;83.89;98546.34;5014639;28;20203;-68
2022/04/23 01:43:42;;;;;;;7.43;6.73;;;;;;;11.12;84.43;98552.06;5014726;28;20204;-68
2022/04/23 01:46:09;;;;;;;6.90;6.20;;;;;;;11.19;84.36;98555.44;5014583;28;20198;-68
2022/04/23 01:48:36;;;;;;;6.87;6.23;;;;;;;11.16;85.06;98566.53;5014519;28;20203;-67
2022/04/23 01:51:03;;;;;;;7.07;6.23;;;;;;;11.11;84.67;98570.88;5014521;28;20561;-67
2022/04/23 01:53:29;;;;;;;8.00;6.67;;;;;;;11.16;84.92;98573.69;5014776;28;20245;-68
2022/04/23 01:55:58;;;;;;;7.60;6.80;;;;;;;11.16;84.47;98571.03;5014995;28;20257;-67
2022/04/23 01:58:24;;;;;;;8.90;6.20;;;;;;;11.15;84.73;98588.00;5014129;28;20684;-68
2022/04/23 02:00:52;;;;;;;7.37;6.87;;;;;;;11.09;84.76;98581.72;5014381;28;20340;-67
2022/04/23 02:03:19;;;;;;;7.10;6.57;;;;;;;11.06;84.49;98582.16;5015357;28;20300;-67
2022/04/23 02:05:45;;;;;;;9.57;6.50;;;;;;;10.98;84.53;98587.75;5014110;28;20192;-67
2022/04/23 02:08:15;;;;;;;11.13;6.63;;;;;;;10.90;85.26;98586.22;5014321;28;20250;-67
2022/04/23 02:10:42;;;;;;;7.43;6.93;;;;;;;10.92;85.58;98578.03;5013950;28;20199;-68
2022/04/23 02:13:10;;;;;;;7.50;6.90;;;;;;;10.99;84.96;98587.53;5014039;28;20248;-68
2022/04/23 02:15:37;;;;;;;7.70;7.17;;;;;;;10.94;85.07;98591.88;5013979;28;20228;-68
2022/04/23 02:18:04;;;;;;;10.00;7.40;;;;;;;10.93;85.38;98593.75;5013734;28;20657;-68
2022/04/23 02:20:32;;;;;;;8.03;7.40;;;;;;;10.86;84.78;98593.00;5013848;28;20268;-68
2022/04/23 02:22:58;;;;;;;7.87;7.27;;;;;;;10.88;85.25;98588.28;5013947;28;20202;-68
2022/04/23 02:25:25;;;;;;;8.23;7.40;;;;;;;10.83;84.98;98587.31;5014173;28;20195;-67
2022/04/23 02:27:52;;;;;;;13.13;8.20;;;;;;;10.83;85.83;98604.06;5013793;28;20208;-67
2022/04/23 02:30:21;;;;;;;8.20;7.43;;;;;;;10.87;85.88;98607.09;5013915;28;20202;-68
2022/04/23 02:32:48;;;;;;;7.83;7.20;;;;;;;10.88;86.24;98608.72;5014259;28;20195;-67
2022/04/23 02:35:16;;;;;;;9.40;8.30;;;;;;;10.89;85.83;98610.34;5013927;28;20253;-67
2022/04/23 02:37:44;;;;;;;9.43;8.63;;;;;;;10.76;86.09;98618.44;5014097;28;20604;-68
2022/04/23 02:40:11;;;;;;;8.00;7.27;;;;;;;10.63;86.42;98619.34;5013459;28;20723;-67
2022/04/23 02:42:39;;;;;;;9.50;7.63;;;;;;;10.69;86.32;98620.34;5013848;28;20248;-67
2022/04/23 02:45:07;;;;;;;8.17;7.43;;;;;;;10.78;85.98;98627.00;5013299;28;20206;-69
2022/04/23 02:47:44;;;;;;;12.63;8.03;;;;;;;10.84;85.75;98626.13;5013546;28;20203;-68
2022/04/23 02:50:10;;;;;;;10.03;8.33;;;;;;;10.88;85.77;98622.00;5013461;28;20187;-68
2022/04/23 02:52:38;;;;;;;8.87;8.10;;;;;;;10.88;85.96;98628.16;5013131;28;20282;-68
2022/04/23 02:55:06;;;;;;;11.43;8.10;;;;;;;10.91;85.49;98632.22;5014009;28;20564;-68
2022/04/23 02:57:33;;;;;;;8.63;7.20;;;;;;;10.90;85.95;98625.25;5014467;28;20241;-68
2022/04/23 03:00:00;;;;;;;8.80;8.00;;;;;;;10.92;85.36;98631.16;5013381;28;20301;-69
2022/04/23 03:02:28;;;;;;;13.20;8.37;;;;;;;10.89;85.22;98626.28;5013433;28;20257;-67
2022/04/23 03:04:56;;;;;;;8.50;7.80;;;;;;;10.84;84.88;98636.75;5013242;28;20195;-68
2022/04/23 03:07:22;;;;;;;8.37;7.77;;;;;;;10.84;85.64;98647.38;5013417;28;20198;-68
2022/04/23 03:09:49;;;;;;;8.70;7.97;;;;;;;10.84;85.73;98642.06;5014151;28;20248;-68
2022/04/23 03:12:16;;;;;;;8.63;8.00;;;;;;;10.90;85.42;98651.81;5012930;28;20195;-69
2022/04/23 03:14:43;;;;;;;8.90;7.93;;;;;;;10.89;84.79;98652.84;5012789;28;20790;-68
2022/04/23 03:17:09;;;;;;;8.70;7.60;;;;;;;10.81;84.80;98663.75;5012892;28;20277;-68
2022/04/23 03:19:36;;;;;;;8.87;7.90;;;;;;;10.64;85.57;98674.13;5012839;28;20222;-68
2022/04/23 03:22:04;;;;;;;11.47;7.90;;;;;;;10.59;85.99;98675.78;5013935;28;20248;-68
2022/04/23 03:24:31;;;;;;;8.30;7.70;;;;;;;10.56;85.88;98676.22;5012808;28;20696;-68
2022/04/23 03:26:58;;;;;;;8.57;7.80;;;;;;;10.66;85.92;98673.91;5013087;28;20192;-68
2022/04/23 03:29:24;;;;;;;9.87;8.37;;;;;;;10.72;85.86;98684.47;5012443;28;20257;-68
2022/04/23 03:31:51;;;;;;;8.33;7.63;;;;;;;10.80;85.64;98678.06;5012849;28;20199;-68
2022/04/23 03:34:18;;;;;;;8.33;7.57;;;;;;;10.88;85.18;98675.13;5012914;28;20194;-68
2022/04/23 03:36:45;;;;;;;11.33;7.93;;;;;;;10.88;84.91;98686.59;5012908;28;20191;-68
2022/04/23 03:39:13;;;;;;;8.30;7.60;;;;;;;10.84;85.32;98681.91;5012453;28;20246;-68
2022/04/23 03:41:40;;;;;;;8.43;7.63;;;;;;;10.93;85.56;98675.28;5013420;28;20256;-68
2022/04/23 03:44:07;;;;;;;10.67;8.23;;;;;;;11.02;85.29;98666.00;5013071;28;20194;-68
2022/04/23 03:46:33;;;;;;;9.17;8.23;;;;;;;11.09;85.03;98656.13;5012249;28;20199;-70
2022/04/23 03:49:00;;;;;;;9.30;8.10;;;;;;;11.13;84.04;98659.16;5012401;28;20227;-69
2022/04/23 03:51:27;;;;;;;8.70;7.90;;;;;;;11.20;84.30;98652.75;5012703;28;20608;-68
2022/04/23 03:53:53;;;;;;;9.83;8.07;;;;;;;11.42;84.05;98645.97;5012662;28;20634;-68
2022/04/23 03:56:21;;;;;;;10.17;8.87;;;;;;;11.62;83.09;98646.59;5013462;28;20258;-68
2022/04/23 03:58:49;;;;;;;11.97;8.30;;;;;;;11.77;81.84;98648.84;5012214;28;20235;-68
2022/04/23 04:01:16;;;;;;;13.63;8.17;;;;;;;12.00;80.77;98657.75;5012354;28;20285;-68
2022/04/23 04:03:43;;;;;;;11.57;8.00;;;;;;;12.33;80.61;98644.00;5012470;28;20255;-68
2022/04/23 04:06:10;;;;;;;10.97;8.40;;;;;;;12.71;77.53;98647.06;5012182;28;20682;-68
2022/04/23 04:08:37;;;;;;;8.23;7.37;;;;;;;12.98;77.72;98649.09;5012090;28;20632;-68
2022/04/23 04:11:03;;;;;;;14.60;7.47;;;;;;;13.37;75.12;98659.03;5011895;28;20674;-69
2022/04/23 04:13:31;;;;;;;13.23;6.87;;;;;;;13.84;74.49;98659.75;5012451;28;20197;-68
2022/04/23 04:15:58;;;;;;;13.83;7.13;;;;;;;14.29;71.80;98668.66;5012090;28;20276;-69
2022/04/23 04:18:25;;;;;;;14.03;7.43;;;;;;;14.79;70.52;98667.66;5012041;28;20290;-68
2022/04/23 04:20:53;;;;;;;11.07;7.83;;;;;;;15.38;68.08;98664.31;5011971;28;20221;-68
2022/04/23 04:23:20;;;;;;;16.27;6.30;;;;;;;15.96;64.43;98671.75;5013144;28;20225;-69
2022/04/23 04:25:47;;;;;;;7.03;6.40;;;;;;;16.29;63.04;98670.78;5012285;28;20288;-69
2022/04/23 04:28:14;;;;;;;7.70;6.90;;;;;;;16.84;62.75;98669.47;5012309;28;20189;-69
2022/04/23 04:33:26;;;;;;;9.13;6.90;;;;;;;17.42;59.83;98668.53;5012080;28;20191;-68
2022/04/23 04:35:53;;;;;;;11.73;6.87;;;;;;;17.61;58.20;98675.09;5011877;28;20229;-69
2022/04/23 04:38:20;;;;;;;6.87;6.37;;;;;;;17.64;58.23;98685.34;5012764;28;20253;-69
2022/04/23 04:40:47;;;;;;;13.93;6.70;;;;;;;17.79;57.01;98682.69;5013249;28;20283;-69
2022/04/23 04:43:14;;;;;;;4.83;3.53;;;;;;;18.27;63.18;98658.16;5016022;28;20204;-68
2022/04/23 04:45:42;;;;;;;4.90;3.40;;;;;;;19.30;64.99;98644.22;5016252;28;20194;-66
2022/04/23 04:48:08;;;;;;;7.13;6.17;;;;;;;20.07;53.84;98671.47;5015820;28;20245;-66
2022/04/23 04:50:35;;;;;;;7.67;5.97;;;;;;;20.63;53.16;98678.19;5015613;28;20196;-67
2022/04/23 04:53:02;;;;;;;8.10;6.23;;;;;;;21.31;51.73;98671.69;5015739;28;20203;-67
2022/04/23 04:55:28;;;;;;;10.53;7.80;;;;;;;21.94;48.13;98678.63;5015829;28;20194;-66
2022/04/23 04:57:55;;;;;;;14.77;10.63;;;;;;;22.88;43.56;98685.72;5015794;28;20198;-67
2022/04/23 05:00:22;;;;;;;10.57;6.70;;;;;;;23.16;43.03;98663.81;5015187;28;20230;-68
2022/04/23 05:02:50;;;;;;;9.53;5.80;;;;;;;23.82;40.97;98677.84;5015240;28;20194;-68
2022/04/23 05:05:17;;;;;;;6.60;6.00;;;;;;;23.96;41.50;98675.13;5015576;28;20202;-66
2022/04/23 05:07:44;;;;;;;7.53;5.63;;;;;;;24.57;41.54;98673.53;5015324;28;20202;-67
2022/04/23 05:10:11;;;;;;;22.47;6.37;;;;;;;25.08;39.43;98663.06;5015580;28;20630;-67
2022/04/23 05:12:37;;;;;;;5.20;4.50;;;;;;;25.31;37.96;98661.16;5015218;28;20663;-67
2022/04/23 05:15:05;;;;;;;10.47;5.10;;;;;;;25.92;38.27;98663.81;5015049;28;20670;-67
2022/04/23 05:17:31;;;;;;;4.30;4.10;;;;;;;26.36;35.28;98668.28;5015099;28;20717;-69
2022/04/23 05:19:59;;;;;;;7.50;4.67;;;;;;;25.78;34.46;98662.34;5014999;28;20699;-70
2022/04/23 05:22:26;;;;;;;5.83;4.80;;;;;;;25.15;35.61;98672.72;5015368;28;20233;-70
2022/04/23 05:24:53;;;;;;;19.87;5.87;;;;;;;24.68;36.62;98680.38;5015351;28;20254;-70
2022/04/23 05:27:20;;;;;;;7.67;4.93;;;;;;;24.11;37.76;98675.63;5014979;28;20205;-69
2022/04/23 05:29:46;;;;;;;5.47;4.97;;;;;;;23.59;38.59;98684.22;5014952;28;20203;-69
2022/04/23 05:32:13;;;;;;;13.97;12.47;;;;;;;23.17;41.71;98670.06;5014906;28;20195;-70
2022/04/23 05:34:40;;;;;;;28.27;17.67;;;;;;;22.68;43.09;98672.50;5014876;28;20245;-68
2022/04/23 05:37:08;;;;;;;23.03;20.60;;;;;;;22.32;44.53;98685.69;5015064;28;20195;-69
2022/04/23 05:39:35;;;;;;;27.73;24.83;;;;;;;22.11;45.10;98691.66;5014906;28;20198;-68
2022/04/23 05:42:01;;;;;;;31.57;27.77;;;;;;;21.90;45.41;98693.00;5014689;28;20238;-67
2022/04/23 05:44:28;;;;;;;33.20;28.50;;;;;;;22.01;45.54;98694.50;5015749;28;20256;-67
2022/04/23 05:46:55;;;;;;;31.40;25.93;;;;;;;22.18;44.83;98706.47;5014470;28;20234;-67
2022/04/23 05:49:21;;;;;;;19.43;14.57;;;;;;;22.29;44.27;98705.22;5014524;28;20194;-68
2022/04/23 05:51:48;;;;;;;9.97;9.20;;;;;;;22.11;44.27;98700.59;5014316;28;20197;-67
2022/04/23 05:54:16;;;;;;;7.93;7.17;;;;;;;22.23;44.56;98711.81;5014792;28;20230;-67
2022/04/23 05:56:43;;;;;;;6.47;5.90;;;;;;;22.29;45.25;98707.91;5015572;28;20202;-67
2022/04/23 05:59:09;;;;;;;6.17;5.37;;;;;;;22.23;45.50;98708.28;5014464;28;20194;-67
2022/04/23 06:01:36;;;;;;;16.00;6.20;;;;;;;22.25;45.21;98706.88;5013048;28;20276;-68
2022/04/23 06:04:03;;;;;;;8.37;5.10;;;;;;;22.25;45.25;98711.50;5010404;28;20194;-67
2022/04/23 06:06:30;;;;;;;5.33;4.97;;;;;;;22.08;44.88;98705.75;5014152;28;20245;-70
2022/04/23 06:08:56;;;;;;;5.43;4.93;;;;;;;21.87;45.63;98709.78;5014409;28;20190;-70
2022/04/23 06:11:25;;;;;;;5.07;4.60;;;;;;;21.87;45.86;98710.59;5014229;28;20209;-71
2022/04/23 06:13:51;;;;;;;5.37;4.87;;;;;;;21.23;46.56;98715.53;5013803;28;20194;-69
2022/04/23 06:16:18;;;;;;;5.30;4.20;;;;;;;21.09;47.54;98711.06;5014361;28;20253;-69
2022/04/23 06:18:44;;;;;;;8.67;4.73;;;;;;;21.03;47.52;98712.22;5013592;28;20202;-69
2022/04/23 06:21:11;;;;;;;8.27;4.57;;;;;;;20.85;48.28;98719.06;5003658;28;20994;-69
2022/04/23 06:23:38;;;;;;;7.27;4.97;;;;;;;20.95;48.26;98719.00;5014094;28;20260;-71
2022/04/23 06:26:04;;;;;;;6.67;4.47;;;;;;;21.14;48.02;98711.84;5012530;28;20206;-69
2022/04/23 06:28:33;;;;;;;16.30;4.80;;;;;;;21.16;47.00;98723.19;5011997;28;20252;-70
2022/04/23 06:30:59;;;;;;;7.40;4.67;;;;;;;21.28;46.35;98718.22;5012618;28;20325;-69
2022/04/23 06:33:26;;;;;;;4.20;3.77;;;;;;;21.20;46.18;98716.13;5012120;28;20202;-70
2022/04/23 06:35:53;;;;;;;4.73;4.27;;;;;;;21.02;46.58;98719.50;5012164;28;20193;-71
2022/04/23 06:38:19;;;;;;;4.87;4.37;;;;;;;20.79;48.05;98709.41;5012987;28;20194;-71
2022/04/23 06:40:47;;;;;;;5.80;4.40;;;;;;;20.91;47.40;98715.28;5012876;28;20229;-70
2022/04/23 06:43:14;;;;;;;6.63;4.30;;;;;;;20.92;47.37;98718.78;5012687;28;20257;-70
2022/04/23 06:45:42;;;;;;;5.77;5.13;;;;;;;20.75;48.46;98713.75;5012344;28;20660;-71
2022/04/23 06:48:09;;;;;;;5.13;4.70;;;;;;;20.56;49.56;98728.97;5012976;28;20201;-74
2022/04/23 06:50:36;;;;;;;5.07;4.67;;;;;;;20.39;50.25;98732.00;5012203;28;20205;-70
2022/04/23 06:53:05;;;;;;;4.47;4.17;;;;;;;20.12;51.12;98730.78;5012461;28;20276;-70
2022/04/23 06:55:32;;;;;;;4.80;4.50;;;;;;;19.88;51.47;98729.75;5013103;28;20210;-70
2022/04/23 06:57:58;;;;;;;4.37;4.00;;;;;;;19.87;52.21;98733.53;5013047;28;20194;-71
2022/04/23 07:00:26;;;;;;;4.90;4.50;;;;;;;20.01;51.78;98735.38;5012646;28;20233;-70
2022/04/23 07:02:54;;;;;;;4.40;4.00;;;;;;;20.11;52.37;98730.00;5011866;28;20576;-76
2022/04/23 07:05:21;;;;;;;5.47;4.13;;;;;;;20.14;51.54;98732.13;5012470;28;20198;-76
2022/04/23 07:07:57;;;;;;;9.57;4.10;;;;;;;20.17;50.93;98733.47;5012255;28;20647;-76
2022/04/23 07:10:24;;;;;;;4.73;4.33;;;;;;;20.35;51.50;98735.56;5011925;28;20254;-76
2022/04/23 07:12:52;;;;;;;5.10;4.00;;;;;;;20.46;51.07;98743.31;5012280;28;20198;-76
2022/04/23 07:15:19;;;;;;;5.30;4.30;;;;;;;20.40;51.55;98738.22;5012434;28;20229;-75
2022/04/23 07:17:46;;;;;;;6.20;4.60;;;;;;;20.29;51.77;98747.44;5012788;28;20197;-76
2022/04/23 07:20:14;;;;;;;5.87;4.33;;;;;;;20.48;52.01;98740.34;5012701;28;20299;-75
2022/04/23 07:24:02;;;;;;;20.77;5.87;;;;;;;20.90;51.67;98743.31;5012904;28;20198;-74
2022/04/23 07:25:28;;;;;;;4.80;4.40;;;;;;;21.04;49.30;98748.94;5012711;28;20276;-73
2022/04/23 07:27:55;;;;;;;6.77;4.20;;;;;;;21.26;49.76;98741.19;5012602;28;20194;-77
2022/04/23 07:30:22;;;;;;;8.97;5.10;;;;;;;21.82;48.47;98748.53;5012534;28;20221;-77
2022/04/23 07:32:49;;;;;;;4.77;4.37;;;;;;;21.94;46.23;98748.13;5012198;28;20253;-76
2022/04/23 07:38:10;;;;;;;4.43;4.13;;;;;;;22.49;45.81;98747.47;5013113;28;20255;-75
2022/04/23 07:40:40;;;;;;;5.60;4.63;;;;;;;22.84;44.52;98736.97;5012740;28;20224;-73
2022/04/23 07:43:09;;;;;;;6.93;4.50;;;;;;;23.09;43.41;98744.72;5012883;28;20386;-76
2022/04/23 07:45:36;;;;;;;6.77;4.53;;;;;;;22.94;41.86;98755.75;5012310;28;20651;-78
2022/04/23 07:48:03;;;;;;;5.67;4.60;;;;;;;22.86;42.22;98761.03;4995199;28;20200;-75
2022/04/23 07:50:31;;;;;;;17.67;5.90;;;;;;;22.69;42.75;98750.72;5012785;28;20210;-75
2022/04/23 07:52:58;;;;;;;6.90;3.80;;;;;;;22.97;44.19;98752.47;5012718;28;20198;-80
2022/04/23 07:55:25;;;;;;;16.33;4.47;;;;;;;22.86;41.66;98761.84;5012353;28;20214;-80
2022/04/23 07:57:52;;;;;;;4.37;3.93;;;;;;;22.86;45.35;98751.00;5012590;28;20189;-81
2022/04/23 08:00:19;;;;;;;4.93;3.77;;;;;;;22.72;42.82;98752.84;5011890;28;20256;-82
2022/04/23 08:02:46;;;;;;;3.80;3.50;;;;;;;22.72;43.18;98746.63;5012276;28;20198;-83
2022/04/23 08:05:12;;;;;;;5.10;3.80;;;;;;;22.77;42.70;98755.47;5012439;28;20256;-73
2022/04/23 08:07:42;;;;;;;5.27;3.67;;;;;;;22.86;43.12;98756.44;5012419;28;20202;-77
2022/04/23 08:10:10;;;;;;;13.37;4.50;;;;;;;22.77;43.87;98752.78;5012444;28;20186;-78
2022/04/23 08:12:37;;;;;;;36.77;4.90;;;;;;;22.67;41.89;98749.41;5013476;28;20198;-81
2022/04/23 08:15:05;;;;;;;7.97;4.50;;;;;;;22.81;43.23;98764.63;5011876;28;20222;-82
2022/04/23 08:17:32;;;;;;;3.67;3.37;;;;;;;23.28;41.47;98759.03;5012576;28;20186;-82
2022/04/23 08:19:59;;;;;;;3.70;3.30;;;;;;;23.62;41.65;98759.56;5012250;28;20194;-77
2022/04/23 08:22:25;;;;;;;4.90;3.30;;;;;;;24.03;41.69;98765.88;5011707;28;20289;-79
2022/04/23 08:24:53;;;;;;;4.97;2.97;;;;;;;24.15;40.42;98763.47;5012063;28;20201;-78
2022/04/23 08:27:20;;;;;;;3.97;3.70;;;;;;;24.00;40.30;98769.19;5012049;28;20747;-77
2022/04/23 08:32:31;;;;;;;3.33;2.90;;;;;;;24.04;40.25;98758.53;5012118;28;20571;-76
2022/04/23 08:34:58;;;;;;;3.77;3.13;;;;;;;23.83;41.30;98749.97;5012071;28;20250;-79
2022/04/23 08:37:25;;;;;;;4.37;3.50;;;;;;;23.77;41.43;98728.66;5011895;28;20252;-80
2022/04/23 08:39:55;;;;;;;3.17;2.93;;;;;;;24.36;39.59;98742.97;4994007;28;20549;-74
2022/04/23 08:42:21;;;;;;;4.07;3.33;;;;;;;24.64;39.25;98744.56;4992427;28;20225;-76
2022/04/23 08:44:48;;;;;;;3.77;2.80;;;;;;;24.96;38.61;98736.19;4992018;28;20197;-75
2022/04/23 08:47:16;;;;;;;4.13;3.47;;;;;;;25.18;37.96;98737.34;4991845;28;20752;-75
2022/04/23 08:49:43;;;;;;;4.90;3.27;;;;;;;25.12;38.99;98730.41;4992346;28;20233;-76
2022/04/23 08:52:15;;;;;;;3.27;2.93;;;;;;;25.13;38.34;98729.28;4992772;28;20198;-74
2022/04/23 08:54:42;;;;;;;5.70;4.40;;;;;;;25.29;38.42;98730.56;4998718;28;20193;-80
2022/04/23 08:57:11;;;;;;;6.90;4.50;;;;;;;25.00;37.80;98731.75;5030217;28;20202;-74
2022/04/23 08:59:38;;;;;;;4.77;3.50;;;;;;;24.63;38.76;98732.06;5030269;28;20650;-79
2022/04/23 09:02:11;;;;;;;4.10;3.70;;;;;;;24.52;39.09;98735.28;5030200;28;20591;-73
2022/04/23 09:04:38;;;;;;;3.83;3.20;;;;;;;24.61;39.24;98726.16;5031454;28;20189;-80
2022/04/23 09:07:05;;;;;;;6.17;3.23;;;;;;;24.38;39.47;98713.59;5030653;28;20192;-75
2022/04/23 09:09:31;;;;;;;4.73;4.30;;;;;;;23.99;40.36;98721.47;5031133;28;20257;-74
2022/04/23 09:11:59;;;;;;;4.50;4.13;;;;;;;23.77;40.54;98710.44;5030987;28;20204;-74
2022/04/23 09:14:29;;;;;;;4.17;3.50;;;;;;;23.78;41.25;98714.81;5031216;28;20672;-72
2022/04/23 09:25:16;;;;;;;3.20;2.80;;;;;;;24.53;39.96;98710.53;4991896;28;20643;-73
2022/04/23 09:27:44;;;;;;;3.57;3.10;;;;;;;24.72;39.62;98713.97;4998838;28;20198;-72
2022/04/23 09:30:14;;;;;;;3.63;3.30;;;;;;;24.72;40.20;98711.25;5014618;28;20208;-73
2022/04/23 09:32:57;;;;;;;5.80;2.53;;;;;;;24.71;38.45;98712.31;5014761;28;20631;-75
2022/04/23 09:35:24;;;;;;;8.00;2.70;;;;;;;24.83;37.47;98709.88;5014744;28;20186;-73
2022/04/23 09:40:36;;;;;;;3.33;3.03;;;;;;;25.52;37.07;98694.06;5033386;28;20259;-76
2022/04/23 09:43:05;;;;;;;2.90;2.70;;;;;;;25.47;36.28;98691.50;5033100;28;20251;-80
2022/04/23 09:45:36;;;;;;;3.07;2.80;;;;;;;25.40;36.77;98691.13;5016085;28;20771;-75
2022/04/23 09:48:19;;;;;;;8.37;3.23;;;;;;;25.64;37.20;98691.56;5002103;28;20183;-75
2022/04/23 09:50:49;;;;;;;4.17;2.87;;;;;;;25.78;37.79;98684.91;4999966;28;20197;-79
2022/04/23 09:53:18;;;;;;;8.27;4.30;;;;;;;26.23;36.38;98683.66;5013149;28;20280;-74
2022/04/23 09:55:46;;;;;;;4.20;2.23;;;;;;;26.20;33.58;98683.47;5014011;28;20229;-81
2022/04/23 09:58:14;;;;;;;4.27;3.87;;;;;;;26.10;34.37;98683.78;5014560;28;20607;-76
2022/04/23 10:00:50;;;;;;;3.47;3.17;;;;;;;25.81;34.95;98675.31;5012641;28;20630;-74
2022/04/23 10:06:39;;;;;;;2.90;2.70;;;;;;;25.37;35.81;98670.00;4992233;28;20226;-72
2022/04/23 10:09:08;;;;;;;4.10;2.40;;;;;;;25.87;34.21;98660.44;4975527;28;20716;-74
2022/04/23 10:11:39;;;;;;;3.93;2.30;;;;;;;26.17;33.85;98662.34;4993276;28;20198;-74
2022/04/23 10:14:06;;;;;;;6.43;2.57;;;;;;;26.27;31.76;98662.03;4999710;28;20237;-73
2022/04/23 10:16:36;;;;;;;5.87;2.40;;;;;;;26.41;32.52;98651.81;5013393;28;20233;-81
2022/04/23 10:19:03;;;;;;;4.40;2.90;;;;;;;26.72;32.50;98657.94;5013760;28;20621;-76
2022/04/23 10:21:40;;;;;;;3.73;2.60;;;;;;;26.84;33.32;98656.16;5012544;28;20218;-75
2022/04/23 10:24:14;;;;;;;2.90;2.33;;;;;;;27.05;33.27;98651.66;5012591;28;20240;-75
2022/04/23 10:26:48;;;;;;;8.73;2.83;;;;;;;27.06;29.90;98660.63;5012069;28;20252;-75
2022/04/23 10:29:17;;;;;;;4.20;2.13;;;;;;;27.14;29.17;98652.44;5012183;28;20256;-72
2022/04/23 10:31:45;;;;;;;4.67;2.10;;;;;;;27.39;30.43;98656.25;5011589;28;20672;-78
2022/04/23 10:34:39;;;;;;;4.77;2.40;;;;;;;27.69;28.41;98655.19;5004820;28;20260;-79
2022/04/23 10:37:19;;;;;;;6.63;2.07;;;;;;;27.74;28.65;98655.81;4958435;28;20267;-72
2022/04/23 10:40:06;;;;;;;3.63;2.20;;;;;;;27.67;29.70;98655.50;5011987;28;20186;-75
2022/04/23 10:42:34;;;;;;;6.20;2.47;;;;;;;27.66;29.98;98645.72;5012351;28;20614;-76
2022/04/23 10:45:05;;;;;;;2.73;2.50;;;;;;;27.73;29.62;98647.94;5013425;28;20198;-73
2022/04/23 10:47:34;;;;;;;4.60;2.70;;;;;;;27.72;28.63;98644.41;5011632;28;20190;-75
2022/04/23 10:50:29;;;;;;;3.07;2.10;;;;;;;27.81;28.74;98641.66;5008716;28;20202;-73
2022/04/23 10:53:02;;;;;;;3.53;2.20;;;;;;;28.01;31.62;98635.47;5012703;28;20252;-72
2022/04/23 10:55:29;;;;;;;3.77;2.60;;;;;;;28.18;29.72;98640.81;5013200;28;20186;-72
2022/04/23 10:58:16;;;;;;;2.30;2.10;;;;;;;28.26;29.55;98626.31;5012554;28;20754;-73
2022/04/23 11:00:45;;;;;;;3.20;2.73;;;;;;;28.26;29.73;98623.59;5013201;28;20259;-72
2022/04/23 11:03:13;;;;;;;6.77;2.33;;;;;;;28.17;29.34;98628.31;5011097;28;20222;-72
2022/04/23 11:14:07;;;;;;;8.50;2.50;;;;;;;27.94;27.48;98624.25;5012264;28;20285;-68
2022/04/23 11:16:36;;;;;;;8.60;3.00;;;;;;;27.77;27.90;98622.38;5010727;28;20244;-70
2022/04/23 11:19:07;;;;;;;5.07;2.13;;;;;;;27.77;29.05;98629.78;5011527;28;20750;-69
2022/04/23 11:21:35;;;;;;;9.73;2.83;;;;;;;27.95;30.48;98621.19;5011475;28;20212;-71
2022/04/23 11:24:03;;;;;;;6.47;2.90;;;;;;;28.07;28.06;98625.94;5011247;28;20194;-71
2022/04/23 11:26:41;;;;;;;5.10;2.60;;;;;;;28.16;27.32;98618.50;5010813;28;20689;-66
2022/04/23 11:29:08;;;;;;;7.63;3.10;;;;;;;28.04;25.37;98618.41;4992902;28;20656;-66
2022/04/23 11:31:35;;;;;;;5.67;2.43;;;;;;;27.99;25.07;98621.34;5007248;28;20204;-67
2022/04/23 11:34:04;;;;;;;9.50;2.80;;;;;;;27.91;24.97;98624.91;5009560;28;20194;-67
2022/04/23 11:36:32;;;;;;;6.83;2.63;;;;;;;27.93;25.55;98628.13;5010760;28;20704;-67
2022/04/23 11:39:00;;;;;;;6.93;2.53;;;;;;;27.75;25.27;98621.91;5010917;28;20198;-67
2022/04/23 11:41:32;;;;;;;7.27;2.87;;;;;;;27.33;26.69;98620.19;5010843;28;20256;-68
2022/04/23 11:44:11;;;;;;;8.37;2.73;;;;;;;27.57;26.71;98616.88;5011149;28;20213;-67
2022/04/23 11:46:41;;;;;;;7.27;2.50;;;;;;;27.62;25.50;98625.69;5010653;28;20652;-67
2022/04/23 11:49:09;;;;;;;6.40;2.53;;;;;;;27.63;25.81;98623.72;5009262;28;20234;-67
2022/04/23 11:51:41;;;;;;;9.33;2.90;;;;;;;27.68;25.49;98626.31;5008117;28;20201;-66
2022/04/23 11:54:08;;;;;;;12.80;2.70;;;;;;;27.76;24.82;98618.06;5009472;28;20244;-67
2022/04/23 11:56:36;;;;;;;6.57;2.30;;;;;;;27.63;25.17;98616.34;5009262;28;20248;-67
2022/04/23 11:59:05;;;;;;;7.00;2.63;;;;;;;27.50;25.24;98617.38;5010254;28;20194;-68
2022/04/23 12:01:32;;;;;;;11.27;2.87;;;;;;;27.25;25.76;98612.00;5010084;28;20197;-68
2022/04/23 12:04:00;;;;;;;6.83;2.23;;;;;;;27.38;25.43;98611.00;5010603;28;20193;-68
2022/04/23 12:06:41;;;;;;;9.03;3.27;;;;;;;27.52;26.06;98606.94;5011432;28;20562;-68